sensor_id;sensor_type;location;lat;lon;timestamp;P1;durP1;ratioP1;P2;durP2;ratioP2
25497;SDS011;13406;53.380;7.226;2023-04-08T00:00:22;6.33;;;5.73;;
25497;SDS011;13406;53.380;7.226;2023-04-08T00:02:48;7.43;;;6.40;;
25497;SDS011;13406;53.380;7.226;2023-04-08T00:05:13;6.80;;;5.97;;
25497;SDS011;13406;53.380;7.226;2023-04-08T00:07:38;6.60;;;5.90;;
25497;SDS011;13406;53.380;7.226;2023-04-08T00:10:04;7.30;;;6.50;;
25497;SDS011;13406;53.380;7.226;2023-04-08T00:12:31;7.73;;;6.83;;
25497;SDS011;13406;53.380;7.226;2023-04-08T00:14:56;6.80;;;6.07;;
25497;SDS011;13406;53.380;7.226;2023-04-08T00:17:22;7.53;;;6.70;;
25497;SDS011;13406;53.380;7.226;2023-04-08T00:19:47;7.30;;;6.60;;
25497;SDS011;13406;53.380;7.226;2023-04-08T00:22:13;8.00;;;6.80;;
25497;SDS011;13406;53.380;7.226;2023-04-08T00:24:39;8.17;;;7.07;;
25497;SDS011;13406;53.380;7.226;2023-04-08T00:27:04;8.50;;;7.43;;
25497;SDS011;13406;53.380;7.226;2023-04-08T00:29:30;8.67;;;7.13;;
25497;SDS011;13406;53.380;7.226;2023-04-08T00:31:56;8.50;;;7.67;;
25497;SDS011;13406;53.380;7.226;2023-04-08T00:34:21;7.73;;;6.93;;
25497;SDS011;13406;53.380;7.226;2023-04-08T00:36:47;8.47;;;7.33;;
25497;SDS011;13406;53.380;7.226;2023-04-08T00:39:13;11.80;;;8.33;;
25497;SDS011;13406;53.380;7.226;2023-04-08T00:41:39;8.47;;;7.53;;
25497;SDS011;13406;53.380;7.226;2023-04-08T00:44:04;8.50;;;7.60;;
25497;SDS011;13406;53.380;7.226;2023-04-08T00:46:30;9.23;;;7.60;;
25497;SDS011;13406;53.380;7.226;2023-04-08T00:49:01;8.73;;;7.77;;
25497;SDS011;13406;53.380;7.226;2023-04-08T00:51:30;9.03;;;8.07;;
25497;SDS011;13406;53.380;7.226;2023-04-08T00:53:56;10.70;;;7.83;;
25497;SDS011;13406;53.380;7.226;2023-04-08T00:56:21;8.60;;;7.70;;
25497;SDS011;13406;53.380;7.226;2023-04-08T00:58:48;9.93;;;8.93;;
25497;SDS011;13406;53.380;7.226;2023-04-08T01:01:20;8.87;;;7.97;;
25497;SDS011;13406;53.380;7.226;2023-04-08T01:06:57;13.43;;;8.30;;
25497;SDS011;13406;53.380;7.226;2023-04-08T01:09:24;9.87;;;8.60;;
25497;SDS011;13406;53.380;7.226;2023-04-08T01:11:53;9.30;;;8.23;;
25497;SDS011;13406;53.380;7.226;2023-04-08T01:14:22;9.00;;;8.10;;
25497;SDS011;13406;53.380;7.226;2023-04-08T01:16:53;8.27;;;7.50;;
25497;SDS011;13406;53.380;7.226;2023-04-08T01:19:26;10.17;;;8.93;;
25497;SDS011;13406;53.380;7.226;2023-04-08T01:21:54;10.27;;;8.63;;
25497;SDS011;13406;53.380;7.226;2023-04-08T01:24:41;10.33;;;9.03;;
25497;SDS011;13406;53.380;7.226;2023-04-08T01:27:09;10.40;;;8.80;;
25497;SDS011;13406;53.380;7.226;2023-04-08T01:29:36;9.53;;;8.63;;
25497;SDS011;13406;53.380;7.226;2023-04-08T01:32:03;11.00;;;9.23;;
25497;SDS011;13406;53.380;7.226;2023-04-08T01:34:32;10.17;;;9.07;;
25497;SDS011;13406;53.380;7.226;2023-04-08T01:36:59;9.50;;;8.60;;
25497;SDS011;13406;53.380;7.226;2023-04-08T01:39:26;10.20;;;9.13;;
25497;SDS011;13406;53.380;7.226;2023-04-08T01:41:54;9.47;;;8.10;;
25497;SDS011;13406;53.380;7.226;2023-04-08T01:44:23;12.00;;;9.27;;
25497;SDS011;13406;53.380;7.226;2023-04-08T01:46:50;11.50;;;10.40;;
25497;SDS011;13406;53.380;7.226;2023-04-08T01:49:17;11.87;;;9.43;;
25497;SDS011;13406;53.380;7.226;2023-04-08T01:51:45;11.80;;;10.30;;
25497;SDS011;13406;53.380;7.226;2023-04-08T01:54:12;11.43;;;10.33;;
25497;SDS011;13406;53.380;7.226;2023-04-08T01:56:38;10.77;;;9.67;;
25497;SDS011;13406;53.380;7.226;2023-04-08T01:59:08;12.90;;;11.27;;
25497;SDS011;13406;53.380;7.226;2023-04-08T02:01:37;12.80;;;10.97;;
25497;SDS011;13406;53.380;7.226;2023-04-08T02:04:03;12.87;;;11.00;;
25497;SDS011;13406;53.380;7.226;2023-04-08T02:06:29;11.33;;;10.23;;
25497;SDS011;13406;53.380;7.226;2023-04-08T02:08:55;13.80;;;11.27;;
25497;SDS011;13406;53.380;7.226;2023-04-08T02:11:21;12.90;;;11.57;;
25497;SDS011;13406;53.380;7.226;2023-04-08T02:13:47;14.93;;;11.77;;
25497;SDS011;13406;53.380;7.226;2023-04-08T02:18:42;13.27;;;11.87;;
25497;SDS011;13406;53.380;7.226;2023-04-08T02:21:13;13.37;;;12.07;;
25497;SDS011;13406;53.380;7.226;2023-04-08T02:23:40;13.13;;;11.83;;
25497;SDS011;13406;53.380;7.226;2023-04-08T02:26:13;13.00;;;11.67;;
25497;SDS011;13406;53.380;7.226;2023-04-08T02:28:40;13.90;;;12.40;;
25497;SDS011;13406;53.380;7.226;2023-04-08T02:31:10;13.90;;;12.50;;
25497;SDS011;13406;53.380;7.226;2023-04-08T02:33:37;13.57;;;12.00;;
25497;SDS011;13406;53.380;7.226;2023-04-08T02:36:03;12.83;;;11.17;;
25497;SDS011;13406;53.380;7.226;2023-04-08T02:38:30;13.93;;;12.53;;
25497;SDS011;13406;53.380;7.226;2023-04-08T02:40:56;14.13;;;12.67;;
25497;SDS011;13406;53.380;7.226;2023-04-08T02:43:21;14.13;;;11.80;;
25497;SDS011;13406;53.380;7.226;2023-04-08T02:45:56;14.50;;;12.03;;
25497;SDS011;13406;53.380;7.226;2023-04-08T02:48:22;13.33;;;11.93;;
25497;SDS011;13406;53.380;7.226;2023-04-08T02:50:47;15.30;;;12.80;;
25497;SDS011;13406;53.380;7.226;2023-04-08T02:53:12;14.10;;;12.70;;
25497;SDS011;13406;53.380;7.226;2023-04-08T02:55:38;16.00;;;12.80;;
25497;SDS011;13406;53.380;7.226;2023-04-08T02:58:04;14.20;;;12.70;;
25497;SDS011;13406;53.380;7.226;2023-04-08T03:00:29;13.17;;;11.87;;
25497;SDS011;13406;53.380;7.226;2023-04-08T03:02:55;13.40;;;11.90;;
25497;SDS011;13406;53.380;7.226;2023-04-08T03:05:20;13.43;;;12.13;;
25497;SDS011;13406;53.380;7.226;2023-04-08T03:07:46;13.73;;;12.40;;
25497;SDS011;13406;53.380;7.226;2023-04-08T03:10:11;12.50;;;11.30;;
25497;SDS011;13406;53.380;7.226;2023-04-08T03:12:37;13.50;;;12.10;;
25497;SDS011;13406;53.380;7.226;2023-04-08T03:15:02;13.20;;;11.47;;
25497;SDS011;13406;53.380;7.226;2023-04-08T03:17:28;14.10;;;11.77;;
25497;SDS011;13406;53.380;7.226;2023-04-08T03:19:56;13.00;;;11.60;;
25497;SDS011;13406;53.380;7.226;2023-04-08T03:22:22;13.43;;;11.87;;
25497;SDS011;13406;53.380;7.226;2023-04-08T03:24:48;13.87;;;11.37;;
25497;SDS011;13406;53.380;7.226;2023-04-08T03:27:13;13.20;;;11.80;;
25497;SDS011;13406;53.380;7.226;2023-04-08T03:29:39;14.47;;;11.93;;
25497;SDS011;13406;53.380;7.226;2023-04-08T03:32:05;12.20;;;11.10;;
25497;SDS011;13406;53.380;7.226;2023-04-08T03:34:32;12.60;;;11.30;;
25497;SDS011;13406;53.380;7.226;2023-04-08T03:36:58;13.20;;;11.80;;
25497;SDS011;13406;53.380;7.226;2023-04-08T03:39:23;13.00;;;11.70;;
25497;SDS011;13406;53.380;7.226;2023-04-08T03:41:49;12.03;;;10.83;;
25497;SDS011;13406;53.380;7.226;2023-04-08T03:44:15;13.60;;;12.27;;
25497;SDS011;13406;53.380;7.226;2023-04-08T03:46:40;12.27;;;11.00;;
25497;SDS011;13406;53.380;7.226;2023-04-08T03:49:06;11.90;;;10.70;;
25497;SDS011;13406;53.380;7.226;2023-04-08T03:51:31;12.57;;;11.10;;
25497;SDS011;13406;53.380;7.226;2023-04-08T03:53:56;12.67;;;11.00;;
25497;SDS011;13406;53.380;7.226;2023-04-08T03:56:22;12.23;;;10.90;;
25497;SDS011;13406;53.380;7.226;2023-04-08T03:58:49;11.50;;;10.40;;
25497;SDS011;13406;53.380;7.226;2023-04-08T04:01:14;12.10;;;10.90;;
25497;SDS011;13406;53.380;7.226;2023-04-08T04:03:40;13.33;;;10.90;;
25497;SDS011;13406;53.380;7.226;2023-04-08T04:06:06;12.43;;;11.17;;
25497;SDS011;13406;53.380;7.226;2023-04-08T04:08:31;12.50;;;11.17;;
25497;SDS011;13406;53.380;7.226;2023-04-08T04:10:57;13.57;;;12.07;;
25497;SDS011;13406;53.380;7.226;2023-04-08T04:13:23;13.23;;;11.83;;
25497;SDS011;13406;53.380;7.226;2023-04-08T04:15:48;14.00;;;12.63;;
25497;SDS011;13406;53.380;7.226;2023-04-08T04:18:14;11.50;;;10.40;;
25497;SDS011;13406;53.380;7.226;2023-04-08T04:20:40;12.50;;;11.30;;
25497;SDS011;13406;53.380;7.226;2023-04-08T04:23:06;12.27;;;11.07;;
25497;SDS011;13406;53.380;7.226;2023-04-08T04:25:32;15.00;;;12.10;;
25497;SDS011;13406;53.380;7.226;2023-04-08T04:27:57;12.20;;;10.90;;
25497;SDS011;13406;53.380;7.226;2023-04-08T04:30:23;12.53;;;11.23;;
25497;SDS011;13406;53.380;7.226;2023-04-08T04:32:48;12.50;;;11.30;;
25497;SDS011;13406;53.380;7.226;2023-04-08T04:35:14;12.37;;;11.03;;
25497;SDS011;13406;53.380;7.226;2023-04-08T04:37:39;11.70;;;10.50;;
25497;SDS011;13406;53.380;7.226;2023-04-08T04:40:05;12.30;;;11.10;;
25497;SDS011;13406;53.380;7.226;2023-04-08T04:42:31;12.80;;;11.37;;
25497;SDS011;13406;53.380;7.226;2023-04-08T04:44:57;13.13;;;11.90;;
25497;SDS011;13406;53.380;7.226;2023-04-08T04:47:23;12.03;;;10.80;;
25497;SDS011;13406;53.380;7.226;2023-04-08T04:49:49;11.50;;;10.40;;
25497;SDS011;13406;53.380;7.226;2023-04-08T04:52:14;14.07;;;10.77;;
25497;SDS011;13406;53.380;7.226;2023-04-08T04:54:40;12.70;;;10.03;;
25497;SDS011;13406;53.380;7.226;2023-04-08T04:57:05;13.50;;;11.10;;
25497;SDS011;13406;53.380;7.226;2023-04-08T04:59:31;12.80;;;11.20;;
25497;SDS011;13406;53.380;7.226;2023-04-08T05:01:57;13.73;;;11.17;;
25497;SDS011;13406;53.380;7.226;2023-04-08T05:04:23;13.20;;;11.23;;
25497;SDS011;13406;53.380;7.226;2023-04-08T05:06:48;11.30;;;10.20;;
25497;SDS011;13406;53.380;7.226;2023-04-08T05:09:14;11.77;;;10.57;;
25497;SDS011;13406;53.380;7.226;2023-04-08T05:11:40;12.37;;;11.07;;
25497;SDS011;13406;53.380;7.226;2023-04-08T05:14:05;12.90;;;11.60;;
25497;SDS011;13406;53.380;7.226;2023-04-08T05:16:31;10.73;;;9.60;;
25497;SDS011;13406;53.380;7.226;2023-04-08T05:18:57;11.57;;;10.37;;
25497;SDS011;13406;53.380;7.226;2023-04-08T05:21:22;12.17;;;10.90;;
25497;SDS011;13406;53.380;7.226;2023-04-08T05:23:48;11.10;;;10.10;;
25497;SDS011;13406;53.380;7.226;2023-04-08T05:26:15;11.83;;;10.63;;
25497;SDS011;13406;53.380;7.226;2023-04-08T05:28:41;10.60;;;9.53;;
25497;SDS011;13406;53.380;7.226;2023-04-08T05:31:06;10.33;;;9.37;;
25497;SDS011;13406;53.380;7.226;2023-04-08T05:33:31;11.83;;;9.60;;
25497;SDS011;13406;53.380;7.226;2023-04-08T05:35:57;9.67;;;8.77;;
25497;SDS011;13406;53.380;7.226;2023-04-08T05:38:22;10.03;;;9.13;;
25497;SDS011;13406;53.380;7.226;2023-04-08T05:40:48;9.47;;;8.47;;
25497;SDS011;13406;53.380;7.226;2023-04-08T05:43:13;11.50;;;10.17;;
25497;SDS011;13406;53.380;7.226;2023-04-08T05:45:39;9.73;;;8.83;;
25497;SDS011;13406;53.380;7.226;2023-04-08T05:48:04;11.03;;;9.37;;
25497;SDS011;13406;53.380;7.226;2023-04-08T05:50:30;11.30;;;9.33;;
25497;SDS011;13406;53.380;7.226;2023-04-08T05:52:55;10.27;;;9.27;;
25497;SDS011;13406;53.380;7.226;2023-04-08T05:55:21;9.57;;;8.53;;
25497;SDS011;13406;53.380;7.226;2023-04-08T05:57:46;9.90;;;8.77;;
25497;SDS011;13406;53.380;7.226;2023-04-08T06:00:11;9.40;;;8.40;;
25497;SDS011;13406;53.380;7.226;2023-04-08T06:02:37;8.93;;;8.03;;
25497;SDS011;13406;53.380;7.226;2023-04-08T06:05:02;8.80;;;7.87;;
25497;SDS011;13406;53.380;7.226;2023-04-08T06:07:28;11.03;;;8.60;;
25497;SDS011;13406;53.380;7.226;2023-04-08T06:09:54;10.40;;;8.70;;
25497;SDS011;13406;53.380;7.226;2023-04-08T06:12:20;9.77;;;8.80;;
25497;SDS011;13406;53.380;7.226;2023-04-08T06:14:45;9.13;;;8.20;;
25497;SDS011;13406;53.380;7.226;2023-04-08T06:17:11;8.40;;;7.50;;
25497;SDS011;13406;53.380;7.226;2023-04-08T06:19:36;8.20;;;7.13;;
25497;SDS011;13406;53.380;7.226;2023-04-08T06:22:02;9.60;;;7.60;;
25497;SDS011;13406;53.380;7.226;2023-04-08T06:24:27;7.37;;;6.67;;
25497;SDS011;13406;53.380;7.226;2023-04-08T06:26:53;7.50;;;6.73;;
25497;SDS011;13406;53.380;7.226;2023-04-08T06:29:20;8.30;;;6.67;;
25497;SDS011;13406;53.380;7.226;2023-04-08T06:31:46;8.37;;;6.63;;
25497;SDS011;13406;53.380;7.226;2023-04-08T06:34:12;7.97;;;7.17;;
25497;SDS011;13406;53.380;7.226;2023-04-08T06:36:38;8.33;;;7.00;;
25497;SDS011;13406;53.380;7.226;2023-04-08T06:39:03;8.00;;;7.17;;
25497;SDS011;13406;53.380;7.226;2023-04-08T06:41:29;10.50;;;7.60;;
25497;SDS011;13406;53.380;7.226;2023-04-08T06:43:55;9.70;;;6.97;;
25497;SDS011;13406;53.380;7.226;2023-04-08T06:46:20;8.97;;;7.63;;
25497;SDS011;13406;53.380;7.226;2023-04-08T06:48:46;8.63;;;7.73;;
25497;SDS011;13406;53.380;7.226;2023-04-08T06:51:11;11.53;;;7.70;;
25497;SDS011;13406;53.380;7.226;2023-04-08T06:53:37;10.40;;;8.43;;
25497;SDS011;13406;53.380;7.226;2023-04-08T06:56:02;10.10;;;8.07;;
25497;SDS011;13406;53.380;7.226;2023-04-08T06:58:28;8.83;;;7.90;;
25497;SDS011;13406;53.380;7.226;2023-04-08T07:00:54;14.03;;;8.63;;
25497;SDS011;13406;53.380;7.226;2023-04-08T07:03:22;9.80;;;7.53;;
25497;SDS011;13406;53.380;7.226;2023-04-08T07:05:48;9.23;;;8.03;;
25497;SDS011;13406;53.380;7.226;2023-04-08T07:08:13;9.50;;;8.47;;
25497;SDS011;13406;53.380;7.226;2023-04-08T07:10:39;11.77;;;8.13;;
25497;SDS011;13406;53.380;7.226;2023-04-08T07:13:04;10.97;;;7.90;;
25497;SDS011;13406;53.380;7.226;2023-04-08T07:15:30;9.00;;;7.83;;
25497;SDS011;13406;53.380;7.226;2023-04-08T07:17:55;11.60;;;8.67;;
25497;SDS011;13406;53.380;7.226;2023-04-08T07:20:21;9.00;;;7.93;;
25497;SDS011;13406;53.380;7.226;2023-04-08T07:22:47;11.57;;;8.87;;
25497;SDS011;13406;53.380;7.226;2023-04-08T07:25:13;13.10;;;8.73;;
25497;SDS011;13406;53.380;7.226;2023-04-08T07:27:39;9.83;;;8.27;;
25497;SDS011;13406;53.380;7.226;2023-04-08T07:30:05;13.47;;;9.30;;
25497;SDS011;13406;53.380;7.226;2023-04-08T07:32:31;10.63;;;9.53;;
25497;SDS011;13406;53.380;7.226;2023-04-08T07:34:57;11.40;;;9.17;;
25497;SDS011;13406;53.380;7.226;2023-04-08T07:37:24;12.33;;;10.27;;
25497;SDS011;13406;53.380;7.226;2023-04-08T07:39:49;13.27;;;9.13;;
25497;SDS011;13406;53.380;7.226;2023-04-08T07:42:15;13.10;;;9.60;;
25497;SDS011;13406;53.380;7.226;2023-04-08T07:44:40;13.27;;;10.47;;
25497;SDS011;13406;53.380;7.226;2023-04-08T07:47:06;12.73;;;10.60;;
25497;SDS011;13406;53.380;7.226;2023-04-08T07:49:31;12.27;;;10.70;;
25497;SDS011;13406;53.380;7.226;2023-04-08T07:51:57;12.90;;;10.63;;
25497;SDS011;13406;53.380;7.226;2023-04-08T07:54:22;13.60;;;10.80;;
25497;SDS011;13406;53.380;7.226;2023-04-08T07:56:48;14.30;;;11.00;;
25497;SDS011;13406;53.380;7.226;2023-04-08T07:59:13;14.30;;;10.57;;
25497;SDS011;13406;53.380;7.226;2023-04-08T08:01:39;15.77;;;10.90;;
25497;SDS011;13406;53.380;7.226;2023-04-08T08:04:04;13.40;;;11.00;;
25497;SDS011;13406;53.380;7.226;2023-04-08T08:06:30;12.87;;;10.70;;
25497;SDS011;13406;53.380;7.226;2023-04-08T08:08:59;16.43;;;12.27;;
25497;SDS011;13406;53.380;7.226;2023-04-08T08:11:25;17.40;;;12.90;;
25497;SDS011;13406;53.380;7.226;2023-04-08T08:13:53;19.63;;;14.23;;
25497;SDS011;13406;53.380;7.226;2023-04-08T08:16:19;20.33;;;15.03;;
25497;SDS011;13406;53.380;7.226;2023-04-08T08:18:44;19.57;;;14.90;;
25497;SDS011;13406;53.380;7.226;2023-04-08T08:21:10;20.70;;;15.23;;
25497;SDS011;13406;53.380;7.226;2023-04-08T08:23:35;19.20;;;15.60;;
25497;SDS011;13406;53.380;7.226;2023-04-08T08:26:02;19.40;;;15.50;;
25497;SDS011;13406;53.380;7.226;2023-04-08T08:28:33;21.30;;;16.37;;
25497;SDS011;13406;53.380;7.226;2023-04-08T08:30:59;21.60;;;15.90;;
25497;SDS011;13406;53.380;7.226;2023-04-08T08:33:25;21.13;;;15.07;;
25497;SDS011;13406;53.380;7.226;2023-04-08T08:35:50;21.50;;;16.90;;
25497;SDS011;13406;53.380;7.226;2023-04-08T08:38:16;25.73;;;17.00;;
25497;SDS011;13406;53.380;7.226;2023-04-08T08:40:42;23.20;;;16.83;;
25497;SDS011;13406;53.380;7.226;2023-04-08T08:43:11;22.60;;;15.37;;
25497;SDS011;13406;53.380;7.226;2023-04-08T08:45:41;21.30;;;16.00;;
25497;SDS011;13406;53.380;7.226;2023-04-08T08:48:06;22.40;;;15.80;;
25497;SDS011;13406;53.380;7.226;2023-04-08T08:50:33;22.13;;;15.63;;
25497;SDS011;13406;53.380;7.226;2023-04-08T08:52:59;22.60;;;16.20;;
25497;SDS011;13406;53.380;7.226;2023-04-08T08:55:24;25.17;;;15.17;;
25497;SDS011;13406;53.380;7.226;2023-04-08T08:57:49;19.63;;;14.30;;
25497;SDS011;13406;53.380;7.226;2023-04-08T09:00:15;22.60;;;14.80;;
25497;SDS011;13406;53.380;7.226;2023-04-08T09:02:42;23.97;;;15.17;;
25497;SDS011;13406;53.380;7.226;2023-04-08T09:05:08;20.13;;;15.50;;
25497;SDS011;13406;53.380;7.226;2023-04-08T09:07:37;21.00;;;15.57;;
25497;SDS011;13406;53.380;7.226;2023-04-08T09:10:06;21.07;;;15.00;;
25497;SDS011;13406;53.380;7.226;2023-04-08T09:12:32;21.20;;;15.13;;
25497;SDS011;13406;53.380;7.226;2023-04-08T09:15:04;19.80;;;14.60;;
25497;SDS011;13406;53.380;7.226;2023-04-08T09:17:34;23.47;;;15.57;;
25497;SDS011;13406;53.380;7.226;2023-04-08T09:20:05;20.93;;;14.83;;
25497;SDS011;13406;53.380;7.226;2023-04-08T09:22:58;21.23;;;15.23;;
25497;SDS011;13406;53.380;7.226;2023-04-08T09:25:26;27.80;;;15.23;;
25497;SDS011;13406;53.380;7.226;2023-04-08T09:27:53;24.77;;;17.93;;
25497;SDS011;13406;53.380;7.226;2023-04-08T09:30:21;20.93;;;15.80;;
25497;SDS011;13406;53.380;7.226;2023-04-08T09:32:54;20.17;;;15.37;;
25497;SDS011;13406;53.380;7.226;2023-04-08T09:35:22;14.90;;;12.40;;
25497;SDS011;13406;53.380;7.226;2023-04-08T09:37:49;20.53;;;12.60;;
25497;SDS011;13406;53.380;7.226;2023-04-08T09:40:15;20.17;;;14.17;;
25497;SDS011;13406;53.380;7.226;2023-04-08T09:42:46;18.80;;;13.93;;
25497;SDS011;13406;53.380;7.226;2023-04-08T09:45:15;20.30;;;13.63;;
25497;SDS011;13406;53.380;7.226;2023-04-08T09:47:54;16.47;;;13.80;;
25497;SDS011;13406;53.380;7.226;2023-04-08T09:50:42;17.63;;;13.50;;
25497;SDS011;13406;53.380;7.226;2023-04-08T09:53:18;14.20;;;11.80;;
25497;SDS011;13406;53.380;7.226;2023-04-08T09:55:47;14.60;;;10.80;;
25497;SDS011;13406;53.380;7.226;2023-04-08T09:58:18;14.63;;;11.47;;
25497;SDS011;13406;53.380;7.226;2023-04-08T10:00:51;14.50;;;12.30;;
25497;SDS011;13406;53.380;7.226;2023-04-08T10:05:44;17.83;;;13.90;;
25497;SDS011;13406;53.380;7.226;2023-04-08T10:08:11;16.87;;;13.80;;
25497;SDS011;13406;53.380;7.226;2023-04-08T10:10:37;15.63;;;13.30;;
25497;SDS011;13406;53.380;7.226;2023-04-08T10:13:05;15.10;;;13.50;;
25497;SDS011;13406;53.380;7.226;2023-04-08T10:15:34;20.40;;;16.77;;
25497;SDS011;13406;53.380;7.226;2023-04-08T10:23:02;17.80;;;16.00;;
25497;SDS011;13406;53.380;7.226;2023-04-08T10:25:37;21.27;;;18.03;;
25497;SDS011;13406;53.380;7.226;2023-04-08T10:33:18;20.80;;;18.40;;
25497;SDS011;13406;53.380;7.226;2023-04-08T10:38:17;26.63;;;19.07;;
25497;SDS011;13406;53.380;7.226;2023-04-08T10:40:44;21.40;;;19.10;;
25497;SDS011;13406;53.380;7.226;2023-04-08T10:43:10;22.13;;;19.73;;
25497;SDS011;13406;53.380;7.226;2023-04-08T10:45:37;23.23;;;20.73;;
25497;SDS011;13406;53.380;7.226;2023-04-08T10:50:37;29.70;;;24.37;;
25497;SDS011;13406;53.380;7.226;2023-04-08T10:53:03;26.13;;;22.50;;
25497;SDS011;13406;53.380;7.226;2023-04-08T10:55:29;27.40;;;24.17;;
25497;SDS011;13406;53.380;7.226;2023-04-08T10:57:57;29.60;;;25.50;;
25497;SDS011;13406;53.380;7.226;2023-04-08T11:00:36;28.43;;;25.30;;
25497;SDS011;13406;53.380;7.226;2023-04-08T11:03:03;28.10;;;24.63;;
25497;SDS011;13406;53.380;7.226;2023-04-08T11:05:31;22.87;;;20.23;;
25497;SDS011;13406;53.380;7.226;2023-04-08T11:07:57;23.40;;;19.10;;
25497;SDS011;13406;53.380;7.226;2023-04-08T11:10:24;22.80;;;19.47;;
25497;SDS011;13406;53.380;7.226;2023-04-08T11:12:51;21.30;;;18.90;;
25497;SDS011;13406;53.380;7.226;2023-04-08T11:15:18;17.70;;;15.90;;
25497;SDS011;13406;53.380;7.226;2023-04-08T11:17:45;17.77;;;15.30;;
25497;SDS011;13406;53.380;7.226;2023-04-08T11:20:11;16.67;;;14.93;;
25497;SDS011;13406;53.380;7.226;2023-04-08T11:22:38;16.40;;;14.47;;
25497;SDS011;13406;53.380;7.226;2023-04-08T11:25:04;16.43;;;14.40;;
25497;SDS011;13406;53.380;7.226;2023-04-08T11:27:32;21.80;;;19.60;;
25497;SDS011;13406;53.380;7.226;2023-04-08T11:30:00;22.40;;;20.20;;
25497;SDS011;13406;53.380;7.226;2023-04-08T11:32:26;25.70;;;22.93;;
25497;SDS011;13406;53.380;7.226;2023-04-08T11:34:55;26.20;;;22.57;;
25497;SDS011;13406;53.380;7.226;2023-04-08T11:37:20;26.60;;;23.80;;
25497;SDS011;13406;53.380;7.226;2023-04-08T11:39:50;26.33;;;23.57;;
25497;SDS011;13406;53.380;7.226;2023-04-08T11:42:28;79.57;;;28.97;;
25497;SDS011;13406;53.380;7.226;2023-04-08T11:44:55;168.77;;;35.00;;
25497;SDS011;13406;53.380;7.226;2023-04-08T11:47:21;56.70;;;23.60;;
25497;SDS011;13406;53.380;7.226;2023-04-08T11:49:46;28.30;;;23.73;;
25497;SDS011;13406;53.380;7.226;2023-04-08T11:52:12;23.53;;;20.30;;
25497;SDS011;13406;53.380;7.226;2023-04-08T11:54:41;22.77;;;20.47;;
25497;SDS011;13406;53.380;7.226;2023-04-08T11:57:07;22.10;;;19.90;;
25497;SDS011;13406;53.380;7.226;2023-04-08T11:59:36;23.17;;;20.77;;
25497;SDS011;13406;53.380;7.226;2023-04-08T12:02:02;22.67;;;20.37;;
25497;SDS011;13406;53.380;7.226;2023-04-08T12:04:28;22.80;;;20.60;;
25497;SDS011;13406;53.380;7.226;2023-04-08T12:06:54;21.93;;;19.63;;
25497;SDS011;13406;53.380;7.226;2023-04-08T12:09:20;23.10;;;20.67;;
25497;SDS011;13406;53.380;7.226;2023-04-08T12:11:46;25.60;;;22.83;;
25497;SDS011;13406;53.380;7.226;2023-04-08T12:14:12;22.00;;;19.70;;
25497;SDS011;13406;53.380;7.226;2023-04-08T12:16:37;24.43;;;21.90;;
25497;SDS011;13406;53.380;7.226;2023-04-08T12:19:03;23.07;;;20.80;;
25497;SDS011;13406;53.380;7.226;2023-04-08T12:21:28;23.20;;;20.77;;
25497;SDS011;13406;53.380;7.226;2023-04-08T12:23:54;23.23;;;20.93;;
25497;SDS011;13406;53.380;7.226;2023-04-08T12:26:19;21.40;;;19.20;;
25497;SDS011;13406;53.380;7.226;2023-04-08T12:28:45;24.90;;;22.20;;
25497;SDS011;13406;53.380;7.226;2023-04-08T12:31:10;23.43;;;20.97;;
25497;SDS011;13406;53.380;7.226;2023-04-08T12:33:36;25.63;;;22.93;;
25497;SDS011;13406;53.380;7.226;2023-04-08T12:36:02;26.53;;;23.73;;
25497;SDS011;13406;53.380;7.226;2023-04-08T12:38:27;29.03;;;25.93;;
25497;SDS011;13406;53.380;7.226;2023-04-08T12:40:53;28.33;;;25.33;;
25497;SDS011;13406;53.380;7.226;2023-04-08T12:43:19;31.23;;;27.77;;
25497;SDS011;13406;53.380;7.226;2023-04-08T12:45:48;32.80;;;27.97;;
25497;SDS011;13406;53.380;7.226;2023-04-08T12:48:14;33.40;;;29.77;;
25497;SDS011;13406;53.380;7.226;2023-04-08T12:50:39;36.43;;;30.87;;
25497;SDS011;13406;53.380;7.226;2023-04-08T12:53:05;38.60;;;32.07;;
25497;SDS011;13406;53.380;7.226;2023-04-08T12:55:31;43.70;;;31.83;;
25497;SDS011;13406;53.380;7.226;2023-04-08T12:57:56;38.27;;;29.20;;
25497;SDS011;13406;53.380;7.226;2023-04-08T13:00:22;33.50;;;28.17;;
25497;SDS011;13406;53.380;7.226;2023-04-08T13:02:47;30.80;;;24.87;;
25497;SDS011;13406;53.380;7.226;2023-04-08T13:05:13;28.60;;;23.07;;
25497;SDS011;13406;53.380;7.226;2023-04-08T13:07:39;24.83;;;22.10;;
25497;SDS011;13406;53.380;7.226;2023-04-08T13:10:05;25.80;;;21.93;;
25497;SDS011;13406;53.380;7.226;2023-04-08T13:12:32;23.40;;;20.90;;
25497;SDS011;13406;53.380;7.226;2023-04-08T13:14:57;24.70;;;21.53;;
25497;SDS011;13406;53.380;7.226;2023-04-08T13:17:23;23.53;;;21.03;;
25497;SDS011;13406;53.380;7.226;2023-04-08T13:19:49;25.63;;;22.10;;
25497;SDS011;13406;53.380;7.226;2023-04-08T13:22:15;24.03;;;21.40;;
25497;SDS011;13406;53.380;7.226;2023-04-08T13:24:40;23.00;;;20.23;;
25497;SDS011;13406;53.380;7.226;2023-04-08T13:27:06;25.40;;;21.17;;
25497;SDS011;13406;53.380;7.226;2023-04-08T13:29:32;23.13;;;20.73;;
25497;SDS011;13406;53.380;7.226;2023-04-08T13:31:58;25.97;;;23.13;;
25497;SDS011;13406;53.380;7.226;2023-04-08T13:34:24;24.40;;;21.63;;
25497;SDS011;13406;53.380;7.226;2023-04-08T13:36:49;23.13;;;20.20;;
25497;SDS011;13406;53.380;7.226;2023-04-08T13:39:15;24.40;;;21.47;;
25497;SDS011;13406;53.380;7.226;2023-04-08T13:41:40;26.30;;;22.93;;
25497;SDS011;13406;53.380;7.226;2023-04-08T13:44:05;27.53;;;24.60;;
25497;SDS011;13406;53.380;7.226;2023-04-08T13:46:31;28.00;;;24.10;;
25497;SDS011;13406;53.380;7.226;2023-04-08T13:48:56;27.33;;;24.40;;
25497;SDS011;13406;53.380;7.226;2023-04-08T13:51:22;28.30;;;24.83;;
25497;SDS011;13406;53.380;7.226;2023-04-08T13:53:47;35.00;;;29.47;;
25497;SDS011;13406;53.380;7.226;2023-04-08T13:56:13;32.37;;;27.37;;
25497;SDS011;13406;53.380;7.226;2023-04-08T13:58:38;31.10;;;26.83;;
25497;SDS011;13406;53.380;7.226;2023-04-08T14:01:03;27.20;;;24.27;;
25497;SDS011;13406;53.380;7.226;2023-04-08T14:03:29;32.50;;;28.13;;
25497;SDS011;13406;53.380;7.226;2023-04-08T14:05:55;34.43;;;28.50;;
25497;SDS011;13406;53.380;7.226;2023-04-08T14:08:21;32.40;;;28.10;;
25497;SDS011;13406;53.380;7.226;2023-04-08T14:10:49;32.63;;;28.90;;
25497;SDS011;13406;53.380;7.226;2023-04-08T14:13:19;33.50;;;26.43;;
25497;SDS011;13406;53.380;7.226;2023-04-08T14:15:45;35.20;;;29.43;;
25497;SDS011;13406;53.380;7.226;2023-04-08T14:18:11;32.87;;;26.57;;
25497;SDS011;13406;53.380;7.226;2023-04-08T14:20:37;39.57;;;30.67;;
25497;SDS011;13406;53.380;7.226;2023-04-08T14:23:03;35.70;;;30.20;;
25497;SDS011;13406;53.380;7.226;2023-04-08T14:25:28;37.10;;;29.40;;
25497;SDS011;13406;53.380;7.226;2023-04-08T14:27:54;35.37;;;30.00;;
25497;SDS011;13406;53.380;7.226;2023-04-08T14:30:19;35.97;;;32.00;;
25497;SDS011;13406;53.380;7.226;2023-04-08T14:32:45;37.63;;;32.30;;
25497;SDS011;13406;53.380;7.226;2023-04-08T14:35:10;42.90;;;33.30;;
25497;SDS011;13406;53.380;7.226;2023-04-08T14:37:36;39.27;;;32.83;;
25497;SDS011;13406;53.380;7.226;2023-04-08T14:40:02;46.10;;;33.87;;
25497;SDS011;13406;53.380;7.226;2023-04-08T14:42:28;44.90;;;35.50;;
25497;SDS011;13406;53.380;7.226;2023-04-08T14:44:54;41.60;;;36.27;;
25497;SDS011;13406;53.380;7.226;2023-04-08T14:47:21;41.97;;;35.73;;